createdAt,value
2023-05-21T00:01:52.508Z,4.93
2023-05-21T00:04:25.481Z,4.63
2023-05-21T00:07:00.935Z,4.90
2023-05-21T00:09:32.709Z,5.27
2023-05-21T00:12:05.988Z,5.33
2023-05-21T00:14:37.823Z,4.73
2023-05-21T00:17:09.598Z,5.37
2023-05-21T00:19:41.387Z,5.40
2023-05-21T00:22:14.211Z,4.70
2023-05-21T00:24:46.154Z,4.97
2023-05-21T00:27:18.077Z,4.97
2023-05-21T00:29:49.981Z,5.50
2023-05-21T00:32:22.468Z,5.27
2023-05-21T00:34:54.651Z,4.87
2023-05-21T00:37:29.752Z,5.20
2023-05-21T00:40:02.679Z,5.40
2023-05-21T00:42:39.227Z,5.10
2023-05-21T00:45:11.053Z,5.10
2023-05-21T00:47:44.142Z,5.07
2023-05-21T00:50:16.290Z,5.50
2023-05-21T00:52:48.993Z,5.60
2023-05-21T00:55:21.066Z,5.50
2023-05-21T00:57:53.058Z,5.23
2023-05-21T01:00:26.495Z,5.43
2023-05-21T01:02:58.557Z,5.47
2023-05-21T01:05:30.945Z,5.70
2023-05-21T01:08:03.365Z,5.33
2023-05-21T01:10:35.159Z,5.20
2023-05-21T01:13:07.449Z,5.43
2023-05-21T01:15:39.321Z,6.23
2023-05-21T01:18:12.198Z,5.47
2023-05-21T01:20:48.212Z,5.97
2023-05-21T01:23:20.944Z,6.10
2023-05-21T01:25:52.690Z,5.83
2023-05-21T01:28:24.461Z,5.50
2023-05-21T01:31:00.012Z,5.50
2023-05-21T01:33:48.808Z,5.73
2023-05-21T01:36:28.859Z,6.03
2023-05-21T01:39:07.698Z,5.50
2023-05-21T01:41:44.920Z,6.33
2023-05-21T01:44:18.912Z,5.40
2023-05-21T01:46:52.199Z,5.37
2023-05-21T01:49:24.821Z,5.70
2023-05-21T01:51:57.003Z,5.33
2023-05-21T01:54:28.788Z,5.90
2023-05-21T01:57:01.589Z,5.60
2023-05-21T01:59:33.926Z,5.90
2023-05-21T02:02:06.064Z,5.33
2023-05-21T02:04:41.253Z,5.47
2023-05-21T02:07:15.089Z,5.33
2023-05-21T02:09:47.933Z,6.27
2023-05-21T02:12:19.701Z,5.20
2023-05-21T02:14:51.515Z,4.97
2023-05-21T02:17:24.360Z,5.23
2023-05-21T02:19:56.180Z,6.07
2023-05-21T02:22:27.942Z,5.70
2023-05-21T02:25:00.329Z,6.13
2023-05-21T02:27:32.501Z,5.93
2023-05-21T02:30:05.777Z,5.90
2023-05-21T02:32:37.903Z,5.80
2023-05-21T02:35:11.618Z,5.40
2023-05-21T02:37:44.087Z,6.00
2023-05-21T02:40:16.346Z,5.67
2023-05-21T02:42:48.125Z,6.17
2023-05-21T02:45:23.756Z,5.93
2023-05-21T02:47:55.720Z,5.83
2023-05-21T02:50:27.671Z,5.50
2023-05-21T02:53:02.594Z,5.80
2023-05-21T02:55:35.566Z,5.40
2023-05-21T02:58:07.596Z,5.30
2023-05-21T03:00:39.495Z,5.93
2023-05-21T03:03:11.955Z,5.80
2023-05-21T03:05:43.751Z,6.27
2023-05-21T03:08:15.823Z,5.60
2023-05-21T03:10:47.821Z,6.37
2023-05-21T03:13:19.725Z,6.07
2023-05-21T03:15:56.080Z,6.23
2023-05-21T03:18:28.900Z,7.00
2023-05-21T03:21:01.103Z,6.23
2023-05-21T03:23:32.851Z,6.00
2023-05-21T03:26:04.741Z,6.30
2023-05-21T03:28:37.235Z,6.40
2023-05-21T03:31:09.378Z,6.70
2023-05-21T03:33:55.865Z,6.23
2023-05-21T03:36:31.199Z,6.20
2023-05-21T03:39:04.269Z,6.60
2023-05-21T03:41:38.299Z,6.17
2023-05-21T03:44:14.081Z,7.00
2023-05-21T03:46:54.864Z,6.50
2023-05-21T03:49:32.576Z,6.40
2023-05-21T03:52:04.737Z,6.53
2023-05-21T03:54:36.640Z,6.67
2023-05-21T03:57:12.200Z,6.70
2023-05-21T03:59:43.983Z,6.70
2023-05-21T04:02:15.981Z,6.80
2023-05-21T04:04:47.968Z,6.70
2023-05-21T04:07:20.336Z,6.70
2023-05-21T04:09:52.144Z,6.70
2023-05-21T04:12:24.044Z,6.23
2023-05-21T04:14:55.979Z,6.57
2023-05-21T04:17:28.539Z,6.33
2023-05-21T04:20:01.421Z,6.30
2023-05-21T04:22:35.281Z,5.60
2023-05-21T04:25:07.268Z,5.57
2023-05-21T04:27:43.525Z,5.77
2023-05-21T04:30:15.427Z,5.97
2023-05-21T04:32:49.178Z,5.67
2023-05-21T04:35:21.328Z,6.20
2023-05-21T04:37:55.030Z,6.03
2023-05-21T04:40:26.829Z,6.27
2023-05-21T04:43:00.153Z,5.90
2023-05-21T04:45:32.764Z,6.43
2023-05-21T04:48:05.219Z,5.93
2023-05-21T04:50:37.096Z,5.87
2023-05-21T04:53:09.005Z,5.73
2023-05-21T04:55:41.885Z,5.83
2023-05-21T04:58:13.816Z,5.83
2023-05-21T05:00:51.648Z,5.90
2023-05-21T05:03:23.607Z,6.37
2023-05-21T05:05:56.358Z,6.07
2023-05-21T05:08:28.104Z,5.73
2023-05-21T05:11:00.046Z,6.13
2023-05-21T05:13:31.843Z,6.13
2023-05-21T05:16:03.907Z,6.13
2023-05-21T05:18:36.645Z,5.30
2023-05-21T05:21:08.563Z,6.70
2023-05-21T05:23:40.448Z,5.77
2023-05-21T05:26:13.696Z,5.27
2023-05-21T05:28:46.370Z,6.27
2023-05-21T05:31:18.766Z,5.93
2023-05-21T05:33:50.895Z,5.77
2023-05-21T05:36:22.705Z,6.23
2023-05-21T05:38:54.443Z,6.60
2023-05-21T05:41:27.140Z,6.30
2023-05-21T05:43:59.001Z,5.70
2023-05-21T05:46:34.411Z,6.00
2023-05-21T05:49:06.218Z,6.03
2023-05-21T05:51:38.017Z,6.00
2023-05-21T05:54:09.800Z,5.63
2023-05-21T05:56:41.700Z,6.00
2023-05-21T05:59:13.734Z,5.83
2023-05-21T06:01:51.735Z,5.97
2023-05-21T06:04:23.639Z,6.00
2023-05-21T06:06:58.000Z,5.53
2023-05-21T06:09:29.894Z,6.50
2023-05-21T06:12:01.884Z,6.13
2023-05-21T06:14:34.004Z,5.83
2023-05-21T06:17:05.833Z,6.00
2023-05-21T06:19:37.628Z,6.17
2023-05-21T06:22:09.467Z,6.03
2023-05-21T06:24:41.254Z,5.63
2023-05-21T06:27:14.437Z,6.07
2023-05-21T06:29:46.637Z,7.00
2023-05-21T06:32:18.783Z,6.43
2023-05-21T06:34:50.640Z,5.77
2023-05-21T06:37:26.451Z,5.90
2023-05-21T06:39:58.446Z,6.87
2023-05-21T06:42:30.205Z,5.63
2023-05-21T06:45:20.808Z,5.50
2023-05-21T06:47:55.469Z,5.47
2023-05-21T06:50:28.435Z,5.67
2023-05-21T06:53:01.196Z,6.07
2023-05-21T06:55:34.070Z,6.20
2023-05-21T06:58:19.367Z,6.13
2023-05-21T07:00:52.186Z,6.50
2023-05-21T07:03:24.175Z,5.17
2023-05-21T07:05:57.795Z,5.53
2023-05-21T07:08:29.534Z,6.13
2023-05-21T07:11:01.789Z,6.93
2023-05-21T07:13:34.978Z,5.90
2023-05-21T07:16:07.380Z,6.50
2023-05-21T07:18:39.257Z,6.20
2023-05-21T07:21:11.246Z,6.70
2023-05-21T07:23:43.037Z,5.77
2023-05-21T07:26:14.786Z,6.17
2023-05-21T07:28:46.679Z,6.97
2023-05-21T07:31:18.547Z,6.17
2023-05-21T07:33:53.202Z,6.03
2023-05-21T07:36:29.593Z,6.33
2023-05-21T07:39:01.647Z,6.60
2023-05-21T07:41:33.936Z,6.03
2023-05-21T07:44:08.745Z,6.50
2023-05-21T07:46:44.576Z,6.57
2023-05-21T07:49:17.273Z,6.27
2023-05-21T07:51:50.725Z,5.67
2023-05-21T07:54:22.656Z,6.23
2023-05-21T07:56:54.508Z,5.60
2023-05-21T07:59:49.561Z,5.70
2023-05-21T08:02:21.510Z,5.50
2023-05-21T08:04:55.015Z,5.17
2023-05-21T08:07:27.609Z,5.67
2023-05-21T08:09:59.845Z,5.60
2023-05-21T08:12:32.970Z,6.23
2023-05-21T08:15:05.373Z,6.00
2023-05-21T08:17:39.479Z,5.77
2023-05-21T08:20:14.393Z,5.17
2023-05-21T08:22:48.307Z,5.10
2023-05-21T08:25:20.094Z,5.80
2023-05-21T08:27:52.583Z,5.57
2023-05-21T08:30:24.730Z,6.00
2023-05-21T08:32:56.778Z,5.60
2023-05-21T08:35:29.022Z,5.67
2023-05-21T08:38:16.977Z,6.23
2023-05-21T08:40:59.665Z,6.07
2023-05-21T08:43:31.654Z,4.97
2023-05-21T08:46:04.784Z,5.37
2023-05-21T08:48:41.455Z,5.37
2023-05-21T08:51:13.937Z,5.77
2023-05-21T08:53:51.594Z,5.17
2023-05-21T08:56:25.930Z,5.40
2023-05-21T08:58:59.763Z,6.23
2023-05-21T09:01:38.177Z,5.80
2023-05-21T09:04:20.872Z,5.43
2023-05-21T09:06:57.824Z,5.17
2023-05-21T09:09:57.701Z,5.60
2023-05-21T09:12:30.569Z,5.63
2023-05-21T09:15:04.365Z,4.70
2023-05-21T09:17:39.660Z,5.17
2023-05-21T09:20:28.546Z,4.57
2023-05-21T09:23:17.208Z,4.70
2023-05-21T09:25:52.020Z,4.67
2023-05-21T09:28:36.229Z,4.57
2023-05-21T09:31:08.029Z,5.37
2023-05-21T09:33:47.500Z,4.90
2023-05-21T09:36:20.850Z,4.33
2023-05-21T09:38:54.043Z,4.90
2023-05-21T09:41:33.549Z,4.73
2023-05-21T09:44:05.696Z,4.53
2023-05-21T09:46:40.643Z,4.77
2023-05-21T09:49:33.402Z,4.60
2023-05-21T09:52:05.715Z,4.47
2023-05-21T09:54:37.452Z,4.10
2023-05-21T09:57:09.249Z,4.87
2023-05-21T09:59:41.418Z,4.63
2023-05-21T10:02:19.426Z,4.70
2023-05-21T10:04:52.947Z,4.53
2023-05-21T10:07:27.055Z,4.23
2023-05-21T10:10:00.953Z,4.40
2023-05-21T10:12:33.580Z,4.20
2023-05-21T10:15:09.220Z,4.33
2023-05-21T10:17:41.702Z,4.57
2023-05-21T10:20:13.579Z,4.53
2023-05-21T10:22:46.284Z,4.57
2023-05-21T10:25:18.894Z,4.03
2023-05-21T10:27:50.752Z,4.20
2023-05-21T10:30:24.230Z,3.77
2023-05-21T10:32:57.217Z,4.43
2023-05-21T10:35:30.752Z,3.57
2023-05-21T10:38:04.810Z,4.20
2023-05-21T10:40:36.953Z,4.03
2023-05-21T10:43:38.867Z,4.60
2023-05-21T10:46:24.555Z,4.40
2023-05-21T10:49:16.199Z,4.97
2023-05-21T10:52:11.999Z,5.00
2023-05-21T10:55:20.997Z,4.27
2023-05-21T10:58:15.946Z,4.53
2023-05-21T11:00:48.448Z,4.33
2023-05-21T11:03:20.915Z,3.73
2023-05-21T11:05:56.547Z,4.07
2023-05-21T11:08:37.474Z,4.00
2023-05-21T11:11:09.384Z,3.97
2023-05-21T11:13:49.165Z,3.87
2023-05-21T11:16:25.842Z,3.80
2023-05-21T11:18:57.699Z,4.13
2023-05-21T11:21:31.198Z,4.03
2023-05-21T11:24:07.531Z,4.00
2023-05-21T11:26:48.468Z,4.20
2023-05-21T11:29:20.241Z,3.83
2023-05-21T11:32:02.747Z,3.85
2023-05-21T11:34:43.568Z,3.63
2023-05-21T11:37:18.270Z,4.00
2023-05-21T11:39:51.051Z,4.43
2023-05-21T11:42:30.238Z,3.73
2023-05-21T11:45:05.688Z,4.10
2023-05-21T11:47:37.499Z,3.90
2023-05-21T11:50:13.548Z,4.13
2023-05-21T11:52:45.517Z,3.87
2023-05-21T11:55:22.346Z,3.97
2023-05-21T11:57:55.509Z,4.53
2023-05-21T12:00:27.415Z,3.83
2023-05-21T12:02:59.364Z,3.63
2023-05-21T12:05:31.316Z,3.77
2023-05-21T12:08:06.262Z,3.77
2023-05-21T12:10:39.611Z,3.77
2023-05-21T12:13:11.468Z,3.87
2023-05-21T12:15:45.103Z,3.83
2023-05-21T12:18:16.876Z,3.53
2023-05-21T12:20:48.742Z,3.83
2023-05-21T12:23:26.615Z,3.77
2023-05-21T12:25:59.477Z,3.40
2023-05-21T12:28:32.042Z,3.97
2023-05-21T12:31:03.883Z,3.95
2023-05-21T12:33:35.813Z,3.97
2023-05-21T12:36:07.612Z,3.43
2023-05-21T12:38:39.424Z,3.88
2023-05-21T12:41:11.259Z,3.85
2023-05-21T12:43:43.114Z,3.90
2023-05-21T12:46:17.610Z,3.80
2023-05-21T12:48:51.515Z,4.00
2023-05-21T12:51:23.363Z,3.50
2023-05-21T12:53:55.108Z,4.55
2023-05-21T12:56:26.855Z,3.60
2023-05-21T12:58:58.691Z,3.85
2023-05-21T13:01:30.822Z,3.67
2023-05-21T13:04:05.009Z,3.83
2023-05-21T13:06:43.987Z,3.65
2023-05-21T13:09:15.920Z,3.47
2023-05-21T13:11:47.650Z,3.53
2023-05-21T13:14:19.393Z,4.20
2023-05-21T13:16:51.117Z,3.35
2023-05-21T13:19:22.980Z,3.78
2023-05-21T13:21:55.132Z,4.10
2023-05-21T13:24:26.885Z,3.55
2023-05-21T13:26:58.684Z,3.95
2023-05-21T13:29:30.416Z,3.75
2023-05-21T13:32:02.342Z,4.10
2023-05-21T13:34:34.047Z,4.20
2023-05-21T13:37:05.776Z,3.42
2023-05-21T13:39:37.625Z,3.60
2023-05-21T13:42:09.380Z,4.28
2023-05-21T13:44:41.313Z,3.83
2023-05-21T13:47:13.595Z,3.30
2023-05-21T13:49:45.374Z,4.10
2023-05-21T13:52:17.164Z,4.10
2023-05-21T13:54:48.922Z,3.42
2023-05-21T13:57:20.960Z,3.95
2023-05-21T13:59:53.314Z,4.18
2023-05-21T14:02:25.192Z,3.72
2023-05-21T14:04:57.094Z,3.50
2023-05-21T14:07:28.926Z,3.90
2023-05-21T14:10:01.427Z,4.22
2023-05-21T14:12:33.401Z,4.05
2023-05-21T14:15:05.677Z,4.63
2023-05-21T14:17:40.065Z,3.47
2023-05-21T14:20:12.422Z,3.42
2023-05-21T14:22:44.189Z,3.75
2023-05-21T14:25:15.974Z,3.75
2023-05-21T14:27:47.702Z,3.80
2023-05-21T14:30:19.600Z,3.75
2023-05-21T14:32:51.440Z,3.85
2023-05-21T14:35:23.202Z,3.92
2023-05-21T14:37:55.151Z,3.63
2023-05-21T14:40:26.911Z,3.20
2023-05-21T14:42:58.793Z,3.95
2023-05-21T14:45:30.652Z,3.70
2023-05-21T14:48:08.242Z,3.30
2023-05-21T14:50:40.909Z,3.60
2023-05-21T14:53:12.689Z,3.60
2023-05-21T14:55:45.359Z,3.65
2023-05-21T14:58:17.612Z,3.50
2023-05-21T15:00:49.410Z,3.28
2023-05-21T15:03:21.301Z,3.45
2023-05-21T15:05:53.318Z,3.42
2023-05-21T15:08:25.295Z,3.83
2023-05-21T15:10:57.229Z,3.13
2023-05-21T15:13:29.038Z,5.22
2023-05-21T15:16:00.967Z,3.78
2023-05-21T15:18:32.841Z,3.90
2023-05-21T15:21:05.476Z,3.20
2023-05-21T15:23:37.211Z,3.70
2023-05-21T15:26:09.224Z,3.60
2023-05-21T15:28:41.029Z,3.75
2023-05-21T15:31:12.810Z,3.58
2023-05-21T15:33:44.597Z,3.78
2023-05-21T15:36:16.350Z,3.58
2023-05-21T15:38:48.124Z,3.77
2023-05-21T15:41:21.985Z,3.35
2023-05-21T15:43:53.754Z,3.55
2023-05-21T15:46:25.736Z,3.83
2023-05-21T15:48:57.566Z,3.42
2023-05-21T15:51:29.341Z,3.22
2023-05-21T15:54:01.250Z,3.88
2023-05-21T15:56:33.006Z,3.42
2023-05-21T15:59:04.867Z,4.20
2023-05-21T16:01:36.663Z,3.55
2023-05-21T16:04:08.766Z,3.28
2023-05-21T16:06:40.761Z,3.25
2023-05-21T16:09:12.498Z,4.03
2023-05-21T16:11:44.817Z,3.70
2023-05-21T16:14:16.584Z,3.92
2023-05-21T16:16:48.383Z,4.10
2023-05-21T16:19:20.218Z,3.40
2023-05-21T16:21:52.230Z,3.40
2023-05-21T16:24:23.984Z,6.60
2023-05-21T16:26:55.781Z,3.80
2023-05-21T16:29:27.513Z,4.38
2023-05-21T16:31:59.325Z,3.85
2023-05-21T16:34:31.635Z,4.20
2023-05-21T16:37:03.523Z,4.05
2023-05-21T16:39:35.383Z,3.58
2023-05-21T16:42:07.172Z,4.25
2023-05-21T16:44:39.239Z,3.88
2023-05-21T16:47:11.037Z,3.65
2023-05-21T16:49:42.786Z,3.45
2023-05-21T16:52:14.525Z,3.15
2023-05-21T16:54:48.793Z,4.15
2023-05-21T16:57:20.658Z,3.35
2023-05-21T16:59:52.426Z,3.28
2023-05-21T17:02:24.824Z,3.85
2023-05-21T17:04:56.819Z,3.53
2023-05-21T17:07:28.719Z,4.13
2023-05-21T17:10:00.481Z,3.65
2023-05-21T17:12:32.275Z,3.45
2023-05-21T17:15:04.454Z,3.53
2023-05-21T17:17:36.204Z,3.30
2023-05-21T17:20:08.564Z,3.70
2023-05-21T17:22:40.463Z,3.50
2023-05-21T17:25:12.285Z,3.90
2023-05-21T17:27:44.001Z,3.47
2023-05-21T17:30:15.897Z,4.20
2023-05-21T17:32:47.697Z,3.85
2023-05-21T17:35:19.549Z,3.87
2023-05-21T17:37:53.224Z,3.73
2023-05-21T17:40:25.320Z,4.13
2023-05-21T17:42:57.056Z,3.93
2023-05-21T17:45:28.794Z,3.70
2023-05-21T17:48:01.100Z,3.37
2023-05-21T17:50:34.187Z,3.50
2023-05-21T17:53:05.995Z,3.40
2023-05-21T17:55:37.978Z,3.50
2023-05-21T17:58:12.910Z,3.40
2023-05-21T18:00:44.810Z,3.70
2023-05-21T18:03:16.656Z,3.60
2023-05-21T18:05:49.212Z,3.67
2023-05-21T18:08:21.012Z,3.20
2023-05-21T18:10:52.781Z,4.37
2023-05-21T18:13:24.547Z,3.93
2023-05-21T18:15:56.754Z,3.87
2023-05-21T18:18:28.525Z,3.90
2023-05-21T18:21:00.317Z,4.03
2023-05-21T18:23:32.068Z,3.93
2023-05-21T18:26:04.404Z,4.10
2023-05-21T18:28:36.213Z,3.53
2023-05-21T18:31:07.961Z,3.60
2023-05-21T18:33:39.759Z,3.90
2023-05-21T18:36:11.651Z,3.63
2023-05-21T18:38:44.031Z,3.47
2023-05-21T18:41:15.927Z,3.23
2023-05-21T18:43:47.681Z,3.47
2023-05-21T18:46:19.997Z,3.87
2023-05-21T18:48:51.810Z,4.80
2023-05-21T18:51:23.894Z,4.77
2023-05-21T18:53:55.621Z,3.70
2023-05-21T18:56:27.436Z,3.70
2023-05-21T18:58:59.184Z,3.83
2023-05-21T19:01:31.124Z,4.00
2023-05-21T19:04:03.209Z,3.93
2023-05-21T19:06:35.024Z,4.70
2023-05-21T19:09:06.763Z,3.90
2023-05-21T19:11:38.747Z,4.30
2023-05-21T19:14:10.589Z,4.60
2023-05-21T19:16:42.362Z,4.67
2023-05-21T19:19:14.198Z,4.83
2023-05-21T19:21:46.055Z,4.77
2023-05-21T19:24:17.877Z,5.03
2023-05-21T19:26:49.609Z,4.83
2023-05-21T19:29:21.519Z,4.13
2023-05-21T19:31:58.284Z,5.47
2023-05-21T19:34:30.179Z,5.10
2023-05-21T19:37:02.258Z,5.13
2023-05-21T19:39:38.382Z,4.53
2023-05-21T19:42:10.722Z,4.77
2023-05-21T19:44:42.749Z,4.00
2023-05-21T19:47:14.698Z,4.80
2023-05-21T19:49:46.566Z,4.20
2023-05-21T19:52:18.500Z,3.87
2023-05-21T19:54:50.386Z,4.47
2023-05-21T19:57:22.130Z,4.53
2023-05-21T19:59:53.853Z,4.60
2023-05-21T20:02:26.624Z,4.57
2023-05-21T20:04:59.038Z,4.70
2023-05-21T20:07:31.321Z,4.63
2023-05-21T20:10:03.205Z,4.73
2023-05-21T20:12:35.584Z,4.60
2023-05-21T20:15:07.851Z,4.87
2023-05-21T20:17:42.228Z,4.63
2023-05-21T20:20:16.717Z,4.10
2023-05-21T20:22:49.265Z,5.03
2023-05-21T20:25:21.085Z,4.07
2023-05-21T20:27:53.383Z,5.00
2023-05-21T20:30:31.477Z,4.37
2023-05-21T20:33:03.562Z,5.07
2023-05-21T20:35:35.423Z,4.33
2023-05-21T20:38:07.487Z,5.03
2023-05-21T20:40:39.469Z,4.47
2023-05-21T20:43:15.215Z,4.97
2023-05-21T20:45:48.115Z,4.57
2023-05-21T20:48:21.593Z,5.03
2023-05-21T20:50:53.335Z,5.73
2023-05-21T20:53:26.017Z,5.00
2023-05-21T20:55:57.811Z,4.73
2023-05-21T20:58:29.587Z,4.70
2023-05-21T21:01:01.817Z,5.07
2023-05-21T21:03:34.319Z,4.90
2023-05-21T21:06:06.630Z,5.20
2023-05-21T21:08:40.275Z,4.53
2023-05-21T21:11:13.165Z,4.67
2023-05-21T21:13:45.095Z,5.30
2023-05-21T21:16:16.954Z,4.87
2023-05-21T21:18:48.857Z,4.63
2023-05-21T21:21:20.726Z,4.97
2023-05-21T21:23:52.484Z,5.03
2023-05-21T21:26:24.608Z,5.20
2023-05-21T21:28:56.508Z,4.70
2023-05-21T21:31:29.573Z,5.23
2023-05-21T21:34:01.428Z,4.50
2023-05-21T21:36:33.345Z,5.57
2023-05-21T21:39:05.088Z,5.60
2023-05-21T21:41:36.959Z,5.67
2023-05-21T21:44:08.866Z,4.83
2023-05-21T21:46:40.805Z,5.33
2023-05-21T21:49:14.263Z,4.90
2023-05-21T21:51:46.205Z,5.50
2023-05-21T21:54:17.955Z,5.47
2023-05-21T21:56:49.759Z,5.20
2023-05-21T21:59:22.332Z,5.43
2023-05-21T22:01:54.181Z,5.00
2023-05-21T22:04:26.035Z,4.77
2023-05-21T22:06:57.828Z,5.20
2023-05-21T22:09:29.612Z,5.00
2023-05-21T22:12:07.527Z,4.83
2023-05-21T22:14:39.367Z,5.13
2023-05-21T22:17:11.339Z,5.10
2023-05-21T22:19:44.040Z,5.40
2023-05-21T22:22:15.856Z,4.90
2023-05-21T22:24:47.589Z,4.80
2023-05-21T22:27:19.364Z,4.97
2023-05-21T22:29:51.251Z,5.50
2023-05-21T22:32:23.023Z,4.73
2023-05-21T22:34:54.764Z,4.77
2023-05-21T22:37:27.326Z,4.53
2023-05-21T22:39:59.055Z,5.23
2023-05-21T22:42:30.807Z,5.13
2023-05-21T22:45:02.951Z,5.03
2023-05-21T22:47:37.043Z,4.80
2023-05-21T22:50:10.157Z,5.47
2023-05-21T22:52:43.292Z,4.90
2023-05-21T22:55:16.373Z,5.63
2023-05-21T22:57:48.129Z,5.87
2023-05-21T23:00:20.112Z,4.93
2023-05-21T23:02:53.962Z,5.20
2023-05-21T23:05:26.522Z,5.30
2023-05-21T23:07:58.282Z,5.40
2023-05-21T23:10:29.995Z,6.00
2023-05-21T23:13:01.828Z,5.00
2023-05-21T23:15:33.677Z,4.83
2023-05-21T23:18:07.558Z,5.53
2023-05-21T23:20:40.956Z,5.63
2023-05-21T23:23:13.211Z,5.40
2023-05-21T23:25:45.804Z,5.07
2023-05-21T23:28:17.519Z,5.27
2023-05-21T23:30:49.281Z,5.10
2023-05-21T23:33:21.577Z,5.40
2023-05-21T23:35:53.360Z,5.30
2023-05-21T23:38:25.471Z,4.87
2023-05-21T23:40:57.218Z,5.13
2023-05-21T23:43:28.958Z,4.60
2023-05-21T23:46:00.727Z,5.30
2023-05-21T23:48:33.205Z,5.20
2023-05-21T23:51:04.955Z,6.00
2023-05-21T23:53:36.754Z,5.30
2023-05-21T23:56:08.492Z,5.37
2023-05-21T23:58:40.292Z,6.00
